createdAt,value
2018-07-03T00:00:26.729Z,101838.82
2018-07-03T00:02:54.354Z,101834.05
2018-07-03T00:05:22.094Z,101836.70
2018-07-03T00:07:49.709Z,101841.98
2018-07-03T00:10:17.301Z,101836.73
2018-07-03T00:12:45.357Z,101839.51
2018-07-03T00:15:12.982Z,101842.68
2018-07-03T00:17:40.593Z,101847.13
2018-07-03T00:20:09.046Z,101845.41
2018-07-03T00:22:36.945Z,101843.28
2018-07-03T00:25:04.857Z,101845.00
2018-07-03T00:27:32.581Z,101845.45
2018-07-03T00:30:00.192Z,101842.40
2018-07-03T00:32:28.145Z,101842.96
2018-07-03T00:34:55.805Z,101836.39
2018-07-03T00:37:24.020Z,101836.91
2018-07-03T00:39:52.092Z,101834.78
2018-07-03T00:42:19.954Z,101831.26
2018-07-03T00:44:47.881Z,101824.28
2018-07-03T00:47:15.859Z,101825.61
2018-07-03T00:49:44.460Z,101829.17
2018-07-03T00:52:12.322Z,101827.44
2018-07-03T00:54:40.476Z,101829.25
2018-07-03T00:57:08.206Z,101821.83
2018-07-03T00:59:41.650Z,101827.56
2018-07-03T01:02:09.297Z,101823.64
2018-07-03T01:04:36.914Z,101823.72
2018-07-03T01:07:04.783Z,101826.40
2018-07-03T01:09:32.614Z,101827.28
2018-07-03T01:12:00.257Z,101829.53
2018-07-03T01:14:27.931Z,101832.28
2018-07-03T01:16:55.603Z,101830.53
2018-07-03T01:19:23.197Z,101831.45
2018-07-03T01:21:50.848Z,101831.96
2018-07-03T01:24:18.524Z,101835.09
2018-07-03T01:26:46.147Z,101834.66
2018-07-03T01:29:13.789Z,101832.92
2018-07-03T01:31:41.824Z,101825.88
2018-07-03T01:34:09.483Z,101825.47
2018-07-03T01:36:37.320Z,101829.03
2018-07-03T01:39:06.622Z,101829.92
2018-07-03T01:41:34.562Z,101824.19
2018-07-03T01:44:02.166Z,101825.59
2018-07-03T01:46:30.093Z,101826.11
2018-07-03T01:48:57.954Z,101828.39
2018-07-03T01:51:26.281Z,101824.94
2018-07-03T01:53:53.894Z,101824.94
2018-07-03T01:56:21.515Z,101824.94
2018-07-03T01:58:49.145Z,101824.05
2018-07-03T02:01:16.812Z,101827.14
2018-07-03T02:03:44.465Z,101821.05
2018-07-03T02:06:12.332Z,101818.41
2018-07-03T02:08:40.505Z,101817.08
2018-07-03T02:11:08.685Z,101814.03
2018-07-03T02:13:36.397Z,101812.34
2018-07-03T02:16:06.664Z,101814.11
2018-07-03T02:18:34.299Z,101810.22
2018-07-03T02:21:01.935Z,101809.41
2018-07-03T02:23:30.004Z,101799.31
2018-07-03T02:25:57.629Z,101796.75
2018-07-03T02:28:25.269Z,101802.47
2018-07-03T02:30:52.936Z,101798.22
2018-07-03T02:33:20.558Z,101789.00
2018-07-03T02:35:48.549Z,101790.36
2018-07-03T02:38:16.209Z,101798.77
2018-07-03T02:40:43.860Z,101802.73
2018-07-03T02:43:11.476Z,101804.61
2018-07-03T02:45:39.127Z,101806.37
2018-07-03T02:48:07.363Z,101808.17
2018-07-03T02:50:35.599Z,101803.80
2018-07-03T02:53:03.284Z,101802.48
2018-07-03T02:55:33.210Z,101807.73
2018-07-03T02:58:01.139Z,101806.00
2018-07-03T03:00:29.366Z,101804.20
2018-07-03T03:02:57.019Z,101807.28
2018-07-03T03:05:24.767Z,101805.93
2018-07-03T03:07:52.921Z,101803.65
2018-07-03T03:10:20.822Z,101813.38
2018-07-03T03:12:49.144Z,101805.27
2018-07-03T03:15:16.779Z,101806.70
2018-07-03T03:17:44.403Z,101802.40
2018-07-03T03:20:12.657Z,101804.71
2018-07-03T03:22:40.320Z,101803.86
2018-07-03T03:25:07.996Z,101800.78
2018-07-03T03:27:35.948Z,101794.17
2018-07-03T03:30:04.350Z,101801.25
2018-07-03T03:32:32.019Z,101796.37
2018-07-03T03:34:59.649Z,101797.73
2018-07-03T03:37:27.570Z,101800.75
2018-07-03T03:39:55.199Z,101798.95
2018-07-03T03:42:22.853Z,101798.47
2018-07-03T03:44:50.822Z,101796.70
2018-07-03T03:47:18.957Z,101798.03
2018-07-03T03:49:47.008Z,101796.70
2018-07-03T03:52:14.967Z,101801.08
2018-07-03T03:54:42.831Z,101799.75
2018-07-03T03:57:10.465Z,101798.03
2018-07-03T03:59:38.493Z,101800.16
2018-07-03T04:02:06.113Z,101732.03
2018-07-03T04:04:34.009Z,101798.84
2018-07-03T04:07:01.924Z,101795.31
2018-07-03T04:09:29.585Z,101798.36
2018-07-03T04:11:57.224Z,101802.33
2018-07-03T04:14:24.991Z,101804.56
2018-07-03T04:16:52.600Z,101798.36
2018-07-03T04:19:20.217Z,101804.97
2018-07-03T04:21:48.277Z,101801.41
2018-07-03T04:24:15.910Z,101800.94
2018-07-03T04:26:44.023Z,101804.38
2018-07-03T04:29:11.868Z,101805.52
2018-07-03T04:31:43.125Z,101804.53
2018-07-03T04:34:10.806Z,101807.17
2018-07-03T04:36:38.673Z,101809.09
2018-07-03T04:39:08.786Z,101803.47
2018-07-03T04:41:36.696Z,101803.06
2018-07-03T04:44:04.437Z,101807.03
2018-07-03T04:46:32.101Z,101803.91
2018-07-03T04:51:27.037Z,101808.17
2018-07-03T04:53:55.171Z,101815.55
2018-07-03T04:56:23.653Z,101806.63
2018-07-03T04:58:51.276Z,101810.99
2018-07-03T05:01:19.525Z,101807.47
2018-07-03T05:03:47.842Z,101811.47
2018-07-03T05:06:16.490Z,101814.59
2018-07-03T05:08:44.885Z,101816.35
2018-07-03T05:11:12.520Z,101807.10
2018-07-03T05:13:40.486Z,101805.74
2018-07-03T05:16:08.529Z,101809.19
2018-07-03T05:18:36.149Z,101807.43
2018-07-03T05:21:04.102Z,101807.25
2018-07-03T05:23:31.765Z,101804.34
2018-07-03T05:25:59.423Z,101806.06
2018-07-03T05:28:27.169Z,101811.39
2018-07-03T05:30:54.931Z,101806.58
2018-07-03T05:33:23.370Z,101810.55
2018-07-03T05:35:51.121Z,101815.83
2018-07-03T05:38:19.206Z,101810.95
2018-07-03T05:40:46.845Z,101816.67
2018-07-03T05:43:14.529Z,101814.44
2018-07-03T05:45:42.193Z,101821.00
2018-07-03T05:48:10.425Z,101818.73
2018-07-03T05:50:38.065Z,101819.05
2018-07-03T05:53:05.722Z,101815.53
2018-07-03T05:55:33.383Z,101818.65
2018-07-03T05:58:01.084Z,101817.22
2018-07-03T06:00:29.025Z,101825.75
2018-07-03T06:02:56.770Z,101822.59
2018-07-03T06:05:24.433Z,101821.19
2018-07-03T06:07:52.174Z,101821.70
2018-07-03T06:10:20.367Z,101821.55
2018-07-03T06:12:48.113Z,101825.96
2018-07-03T06:15:15.749Z,101823.91
2018-07-03T06:17:44.008Z,101826.31
2018-07-03T06:20:11.691Z,101826.84
2018-07-03T06:22:39.887Z,101825.59
2018-07-03T06:25:07.687Z,101820.78
2018-07-03T06:27:35.578Z,101822.02
2018-07-03T06:30:03.312Z,101826.31
2018-07-03T06:32:31.292Z,101821.47
2018-07-03T06:34:59.288Z,101815.73
2018-07-03T06:37:27.198Z,101815.25
2018-07-03T06:39:55.243Z,101818.78
2018-07-03T06:42:23.172Z,101820.46
2018-07-03T06:44:50.843Z,101813.77
2018-07-03T06:47:18.626Z,101819.86
2018-07-03T06:49:46.271Z,101820.67
2018-07-03T06:52:13.892Z,101818.42
2018-07-03T06:54:41.709Z,101825.80
2018-07-03T06:57:09.376Z,101821.83
2018-07-03T06:59:37.290Z,101815.70
2018-07-03T07:02:05.173Z,101819.67
2018-07-03T07:04:33.100Z,101823.16
2018-07-03T07:07:00.996Z,101829.25
2018-07-03T07:09:29.041Z,101822.23
2018-07-03T07:11:56.936Z,101828.37
2018-07-03T07:14:24.950Z,101821.80
2018-07-03T07:16:52.562Z,101830.09
2018-07-03T07:19:20.210Z,101820.31
2018-07-03T07:21:48.050Z,101823.32
2018-07-03T07:24:16.036Z,101820.19
2018-07-03T07:26:43.763Z,101821.52
2018-07-03T07:29:11.451Z,101822.44
2018-07-03T07:31:39.129Z,101821.52
2018-07-03T07:34:06.909Z,101828.97
2018-07-03T07:36:34.609Z,101833.37
2018-07-03T07:39:02.662Z,101833.27
2018-07-03T07:41:30.308Z,101836.27
2018-07-03T07:43:58.006Z,101833.58
2018-07-03T07:48:53.864Z,101828.77
2018-07-03T07:51:21.709Z,101833.58
2018-07-03T07:53:49.468Z,101832.22
2018-07-03T07:56:17.687Z,101830.41
2018-07-03T07:58:45.705Z,101835.58
2018-07-03T08:01:13.357Z,101838.19
2018-07-03T08:03:41.252Z,101834.22
2018-07-03T08:06:09.301Z,101835.94
2018-07-03T08:08:36.933Z,101830.61
2018-07-03T08:11:04.554Z,101830.13
2018-07-03T08:13:32.609Z,101830.97
2018-07-03T08:16:00.591Z,101835.38
2018-07-03T08:18:28.585Z,101838.38
2018-07-03T08:20:56.966Z,101836.98
2018-07-03T08:23:24.629Z,101831.28
2018-07-03T08:25:52.318Z,101836.98
2018-07-03T08:28:20.333Z,101828.59
2018-07-03T08:30:47.976Z,101835.21
2018-07-03T08:33:15.834Z,101831.69
2018-07-03T08:35:43.491Z,101835.61
2018-07-03T08:38:11.549Z,101831.20
2018-07-03T08:40:39.758Z,101832.12
2018-07-03T08:43:08.130Z,101832.52
2018-07-03T08:45:35.814Z,101826.26
2018-07-03T08:48:03.934Z,101831.11
2018-07-03T08:50:32.071Z,101820.05
2018-07-03T08:52:59.709Z,101823.17
2018-07-03T08:55:27.321Z,101824.85
2018-07-03T08:57:55.614Z,101824.81
2018-07-03T09:00:23.931Z,101832.23
2018-07-03T09:02:51.594Z,101828.66
2018-07-03T09:05:19.556Z,101826.41
2018-07-03T09:07:47.732Z,101826.41
2018-07-03T09:10:15.433Z,101829.89
2018-07-03T09:12:43.142Z,101830.30
2018-07-03T09:15:10.824Z,101825.66
2018-07-03T09:17:38.490Z,101832.50
2018-07-03T09:20:06.527Z,101830.91
2018-07-03T09:22:34.521Z,101829.27
2018-07-03T09:25:02.605Z,101821.89
2018-07-03T09:27:30.395Z,101821.55
2018-07-03T09:29:58.353Z,101827.69
2018-07-03T09:32:26.165Z,101819.80
2018-07-03T09:34:54.179Z,101822.04
2018-07-03T09:37:21.841Z,101822.52
2018-07-03T09:39:49.821Z,101821.23
2018-07-03T09:42:17.536Z,101820.36
2018-07-03T09:44:45.251Z,101818.11
2018-07-03T09:47:13.216Z,101814.09
2018-07-03T09:49:41.244Z,101820.72
2018-07-03T09:52:09.151Z,101814.09
2018-07-03T09:54:37.096Z,101816.25
2018-07-03T09:57:04.774Z,101815.33
2018-07-03T09:59:32.701Z,101817.09
2018-07-03T10:02:00.369Z,101812.68
2018-07-03T10:04:32.323Z,101821.77
2018-07-03T10:07:00.410Z,101820.31
2018-07-03T10:09:29.164Z,101820.27
2018-07-03T10:11:56.832Z,101816.79
2018-07-03T10:14:24.562Z,101815.11
2018-07-03T10:16:52.231Z,101816.03
2018-07-03T10:19:22.735Z,101810.73
2018-07-03T10:21:50.468Z,101819.56
2018-07-03T10:24:18.177Z,101819.08
2018-07-03T10:26:46.014Z,101811.09
2018-07-03T10:29:13.711Z,101816.34
2018-07-03T10:31:41.600Z,101814.19
2018-07-03T10:34:09.331Z,101812.81
2018-07-03T10:36:37.002Z,101811.45
2018-07-03T10:39:07.833Z,101814.97
2018-07-03T10:41:35.582Z,101812.28
2018-07-03T10:44:03.454Z,101815.73
2018-07-03T10:46:31.122Z,101814.84
2018-07-03T10:48:58.806Z,101815.28
2018-07-03T10:51:26.534Z,101809.51
2018-07-03T10:53:54.246Z,101812.16
2018-07-03T10:56:21.985Z,101816.48
2018-07-03T10:58:49.700Z,101806.33
2018-07-03T11:01:17.741Z,101811.14
2018-07-03T11:03:45.505Z,101808.05
2018-07-03T11:06:13.154Z,101806.72
2018-07-03T11:08:40.933Z,101799.70
2018-07-03T11:11:08.624Z,101807.16
2018-07-03T11:13:41.981Z,101812.20
2018-07-03T11:16:09.604Z,101804.56
2018-07-03T11:18:37.281Z,101802.74
2018-07-03T11:21:05.428Z,101800.89
2018-07-03T11:23:33.513Z,101793.78
2018-07-03T11:26:01.450Z,101803.00
2018-07-03T11:28:29.332Z,101804.68
2018-07-03T11:30:57.320Z,101803.66
2018-07-03T11:33:24.974Z,101800.04
2018-07-03T11:35:52.995Z,101796.06
2018-07-03T11:38:20.705Z,101798.66
2018-07-03T11:40:48.377Z,101809.27
2018-07-03T11:43:16.263Z,101810.06
2018-07-03T11:45:44.568Z,101797.69
2018-07-03T11:48:12.500Z,101798.94
2018-07-03T11:50:40.432Z,101792.26
2018-07-03T11:53:08.697Z,101802.36
2018-07-03T11:55:36.664Z,101793.53
2018-07-03T11:58:04.944Z,101800.41
2018-07-03T12:00:32.925Z,101801.30
2018-07-03T12:03:00.580Z,101801.79
2018-07-03T12:05:28.261Z,101806.64
2018-07-03T12:07:56.145Z,101803.02
2018-07-03T12:10:23.816Z,101798.11
2018-07-03T12:12:52.098Z,101800.77
2018-07-03T12:15:20.169Z,101794.58
2018-07-03T12:17:47.936Z,101788.39
2018-07-03T12:20:15.538Z,101797.14
2018-07-03T12:22:43.300Z,101788.14
2018-07-03T12:25:11.001Z,101776.61
2018-07-03T12:27:38.699Z,101779.56
2018-07-03T12:30:08.496Z,101778.98
2018-07-03T12:32:36.191Z,101782.56
2018-07-03T12:35:04.169Z,101785.11
2018-07-03T12:37:31.827Z,101775.30
2018-07-03T12:39:59.483Z,101776.97
2018-07-03T12:42:27.088Z,101775.14
2018-07-03T12:44:55.473Z,101779.07
2018-07-03T12:47:23.189Z,101784.67
2018-07-03T12:49:50.864Z,101771.86
2018-07-03T12:52:18.483Z,101774.45
2018-07-03T12:54:46.374Z,101783.20
2018-07-03T12:57:14.393Z,101773.48
2018-07-03T12:59:42.374Z,101772.95
2018-07-03T13:02:10.218Z,101780.01
2018-07-03T13:04:38.721Z,101775.69
2018-07-03T13:07:06.611Z,101777.85
2018-07-03T13:09:34.271Z,101770.83
2018-07-03T13:12:01.983Z,101768.57
2018-07-03T13:14:29.616Z,101780.91
2018-07-03T13:16:57.589Z,101775.73
2018-07-03T13:19:25.324Z,101778.89
2018-07-03T13:21:52.977Z,101771.33
2018-07-03T13:24:21.997Z,101772.10
2018-07-03T13:26:49.898Z,101774.27
2018-07-03T13:29:17.916Z,101772.89
2018-07-03T13:31:45.977Z,101767.94
2018-07-03T13:34:14.159Z,101776.32
2018-07-03T13:36:41.798Z,101779.77
2018-07-03T13:39:10.525Z,101780.16
2018-07-03T13:41:38.170Z,101770.03
2018-07-03T13:44:05.834Z,101763.80
2018-07-03T13:46:34.369Z,101769.00
2018-07-03T13:49:02.097Z,101769.10
2018-07-03T13:51:29.844Z,101764.67
2018-07-03T13:53:57.498Z,101756.98
2018-07-03T13:56:25.441Z,101763.98
2018-07-03T13:58:53.373Z,101764.33
2018-07-03T14:01:21.047Z,101761.14
2018-07-03T14:03:48.721Z,101759.31
2018-07-03T14:06:16.360Z,101760.98
2018-07-03T14:08:44.360Z,101752.88
2018-07-03T14:11:12.200Z,101758.13
2018-07-03T14:13:40.037Z,101756.69
2018-07-03T14:16:07.690Z,101758.84
2018-07-03T14:18:35.734Z,101754.81
2018-07-03T14:21:03.705Z,101756.63
2018-07-03T14:23:31.604Z,101755.09
2018-07-03T14:26:00.315Z,101751.09
2018-07-03T14:28:28.305Z,101749.56
2018-07-03T14:30:55.968Z,101754.00
2018-07-03T14:33:23.626Z,101738.09
2018-07-03T14:35:51.667Z,101757.67
2018-07-03T14:38:19.345Z,101756.08
2018-07-03T14:40:46.962Z,101760.31
2018-07-03T14:43:14.999Z,101750.52
2018-07-03T14:45:42.891Z,101767.05
2018-07-03T14:48:10.974Z,101754.15
2018-07-03T14:50:38.636Z,101762.61
2018-07-03T14:53:07.081Z,101759.91
2018-07-03T14:55:35.013Z,101764.15
2018-07-03T14:58:03.112Z,101761.64
2018-07-03T15:00:30.926Z,101765.59
2018-07-03T15:02:58.661Z,101760.75
2018-07-03T15:05:26.416Z,101757.37
2018-07-03T15:07:54.075Z,101750.58
2018-07-03T15:10:22.440Z,101752.73
2018-07-03T15:12:50.095Z,101750.84
2018-07-03T15:15:18.429Z,101755.63
2018-07-03T15:17:46.277Z,101749.52
2018-07-03T15:20:13.945Z,101749.83
2018-07-03T15:22:41.609Z,101750.89
2018-07-03T15:25:09.518Z,101762.84
2018-07-03T15:27:37.156Z,101752.72
2018-07-03T15:30:05.335Z,101754.92
2018-07-03T15:32:32.976Z,101744.24
2018-07-03T15:35:01.135Z,101743.94
2018-07-03T15:37:29.120Z,101740.12
2018-07-03T15:39:57.173Z,101665.16
2018-07-03T15:42:25.265Z,101739.28
2018-07-03T15:45:02.380Z,101741.33
2018-07-03T15:47:30.029Z,101740.44
2018-07-03T15:49:57.661Z,101740.55
2018-07-03T15:52:25.680Z,101738.06
2018-07-03T15:54:53.529Z,101739.91
2018-07-03T15:57:21.179Z,101729.17
2018-07-03T15:59:49.552Z,101730.09
2018-07-03T16:02:17.304Z,101728.48
2018-07-03T16:05:01.444Z,101729.50
2018-07-03T16:07:40.218Z,101726.57
2018-07-03T16:10:08.228Z,101726.52
2018-07-03T16:12:35.913Z,101738.19
2018-07-03T16:15:04.133Z,101738.19
2018-07-03T16:17:31.801Z,101733.77
2018-07-03T16:20:05.144Z,101732.91
2018-07-03T16:22:33.396Z,101726.72
2018-07-03T16:25:01.049Z,101724.84
2018-07-03T16:27:28.674Z,101724.06
2018-07-03T16:29:56.658Z,101725.69
2018-07-03T16:32:25.699Z,101716.16
2018-07-03T16:34:53.522Z,101713.14
2018-07-03T16:37:21.298Z,101704.68
2018-07-03T16:39:49.223Z,101713.80
2018-07-03T16:42:16.899Z,101708.34
2018-07-03T16:44:44.769Z,101703.28
2018-07-03T16:47:12.918Z,101700.53
2018-07-03T16:49:40.736Z,101706.30
2018-07-03T16:52:08.560Z,101694.53
2018-07-03T16:54:36.277Z,101696.44
2018-07-03T16:57:03.942Z,101696.86
2018-07-03T16:59:32.765Z,101696.81
2018-07-03T17:02:01.359Z,101699.45
2018-07-03T17:04:29.610Z,101700.50
2018-07-03T17:06:57.605Z,101695.76
2018-07-03T17:09:25.265Z,101686.66
2018-07-03T17:11:52.945Z,101694.52
2018-07-03T17:14:20.646Z,101698.36
2018-07-03T17:16:48.579Z,101693.03
2018-07-03T17:19:21.794Z,101685.44
2018-07-03T17:21:49.397Z,101696.87
2018-07-03T17:24:17.315Z,101686.36
2018-07-03T17:26:45.148Z,101677.87
2018-07-03T17:29:12.812Z,101683.13
2018-07-03T17:31:40.903Z,101688.00
2018-07-03T17:34:08.885Z,101691.44
2018-07-03T17:36:36.565Z,101698.64
2018-07-03T17:39:14.383Z,101705.16
2018-07-03T17:41:53.855Z,101704.52
2018-07-03T17:44:42.021Z,101701.81
2018-07-03T17:47:09.780Z,101700.86
2018-07-03T17:49:37.761Z,101697.36
2018-07-03T17:52:05.438Z,101699.61
2018-07-03T17:54:33.048Z,101705.39
2018-07-03T17:57:00.732Z,101699.75
2018-07-03T17:59:28.614Z,101692.78
2018-07-03T18:01:56.495Z,101694.27
2018-07-03T18:04:24.144Z,101679.75
2018-07-03T18:06:51.788Z,101684.55
2018-07-03T18:09:19.437Z,101688.94
2018-07-03T18:11:47.097Z,101694.42
2018-07-03T18:14:14.963Z,101694.05
2018-07-03T18:16:43.244Z,101694.45
2018-07-03T18:19:16.449Z,101689.66
2018-07-03T18:21:44.394Z,101696.00
2018-07-03T18:24:12.154Z,101688.57
2018-07-03T18:26:39.808Z,101689.56
2018-07-03T18:29:07.459Z,101686.45
2018-07-03T18:31:35.232Z,101679.62
2018-07-03T18:34:02.932Z,101685.46
2018-07-03T18:36:30.763Z,101689.84
2018-07-03T18:38:58.526Z,101682.28
2018-07-03T18:41:26.160Z,101689.05
2018-07-03T18:43:53.895Z,101695.59
2018-07-03T18:46:21.760Z,101687.95
2018-07-03T18:48:49.733Z,101686.44
2018-07-03T18:51:17.419Z,101687.88
2018-07-03T18:53:45.229Z,101691.73
2018-07-03T18:56:13.748Z,101690.91
2018-07-03T18:58:41.526Z,101692.50
2018-07-03T19:01:09.406Z,101690.95
2018-07-03T19:03:37.477Z,101689.70
2018-07-03T19:06:05.253Z,101683.48
2018-07-03T19:08:32.850Z,101685.64
2018-07-03T19:11:00.734Z,101686.32
2018-07-03T19:13:28.717Z,101676.17
2018-07-03T19:15:56.399Z,101677.41
2018-07-03T19:18:24.246Z,101676.53
2018-07-03T19:20:51.872Z,101677.86
2018-07-03T19:23:19.903Z,101678.47
2018-07-03T19:25:47.890Z,101680.62
2018-07-03T19:28:15.573Z,101684.08
2018-07-03T19:30:43.526Z,101682.57
2018-07-03T19:33:11.153Z,101681.63
2018-07-03T19:35:38.810Z,101684.19
2018-07-03T19:38:06.450Z,101684.45
2018-07-03T19:40:34.081Z,101685.56
2018-07-03T19:43:36.406Z,101687.02
2018-07-03T19:46:05.066Z,101686.40
2018-07-03T19:48:32.775Z,101685.84
2018-07-03T19:51:00.399Z,101685.65
2018-07-03T19:53:28.056Z,101684.13
2018-07-03T19:55:56.971Z,101679.86
2018-07-03T19:58:25.115Z,101677.41
2018-07-03T20:00:55.598Z,101674.97
2018-07-03T20:03:23.230Z,101680.48
2018-07-03T20:05:50.873Z,101688.15
2018-07-03T20:08:18.959Z,101687.04
2018-07-03T20:10:47.381Z,101691.66
2018-07-03T20:13:16.334Z,101688.72
2018-07-03T20:15:46.409Z,101683.66
2018-07-03T20:18:14.834Z,101692.55
2018-07-03T20:20:42.455Z,101693.59
2018-07-03T20:23:10.073Z,101700.77
2018-07-03T20:25:38.358Z,101689.87
2018-07-03T20:28:06.097Z,101694.09
2018-07-03T20:30:34.249Z,101699.05
2018-07-03T20:33:02.141Z,101697.78
2018-07-03T20:35:30.171Z,101701.47
2018-07-03T20:37:59.127Z,101696.36
2018-07-03T20:40:27.921Z,101695.77
2018-07-03T20:42:57.015Z,101693.66
2018-07-03T20:45:24.761Z,101693.81
2018-07-03T20:47:52.509Z,101690.46
2018-07-03T20:50:20.609Z,101687.07
2018-07-03T20:52:48.561Z,101692.08
2018-07-03T20:55:16.698Z,101693.95
2018-07-03T20:57:44.945Z,101682.20
2018-07-03T21:00:12.608Z,101692.90
2018-07-03T21:02:40.269Z,101702.75
2018-07-03T21:05:07.885Z,101705.89
2018-07-03T21:07:36.297Z,101708.67
2018-07-03T21:10:04.049Z,101708.32
2018-07-03T21:12:31.941Z,101709.34
2018-07-03T21:15:00.002Z,101708.52
2018-07-03T21:17:27.973Z,101710.86
2018-07-03T21:19:55.912Z,101703.89
2018-07-03T21:22:24.072Z,101703.53
2018-07-03T21:24:52.248Z,101704.06
2018-07-03T21:27:19.889Z,101704.52
2018-07-03T21:29:47.792Z,101701.08
2018-07-03T21:32:15.417Z,101702.05
2018-07-03T21:34:43.490Z,101700.38
2018-07-03T21:37:11.095Z,101693.80
2018-07-03T21:39:39.333Z,101692.97
2018-07-03T21:42:06.952Z,101692.61
2018-07-03T21:44:34.920Z,101692.70
2018-07-03T21:47:02.865Z,101697.60
2018-07-03T21:49:30.845Z,101694.60
2018-07-03T21:51:58.716Z,101692.88
2018-07-03T21:54:26.916Z,101688.16
2018-07-03T21:56:54.806Z,101688.24
2018-07-03T21:59:22.752Z,101693.58
2018-07-03T22:01:50.352Z,101690.98
2018-07-03T22:04:18.235Z,101705.58
2018-07-03T22:06:46.604Z,101701.69
2018-07-03T22:09:14.232Z,101696.45
2018-07-03T22:11:42.477Z,101699.98
2018-07-03T22:14:11.165Z,101696.98
2018-07-03T22:16:39.337Z,101697.50
2018-07-03T22:19:07.464Z,101686.96
2018-07-03T22:21:35.964Z,101677.75
2018-07-03T22:24:03.556Z,101676.83
2018-07-03T22:26:31.980Z,101665.04
2018-07-03T22:28:59.964Z,101669.90
2018-07-03T22:31:27.633Z,101666.84
2018-07-03T22:33:55.522Z,101666.89
2018-07-03T22:36:24.065Z,101659.03
2018-07-03T22:38:52.041Z,101663.50
2018-07-03T22:41:19.645Z,101666.19
2018-07-03T22:43:47.644Z,101666.23
2018-07-03T22:46:15.718Z,101672.44
2018-07-03T22:48:43.920Z,101672.48
2018-07-03T22:51:11.859Z,101670.36
2018-07-03T22:53:39.448Z,101666.44
2018-07-03T22:56:07.572Z,101665.64
2018-07-03T22:58:35.260Z,101661.23
2018-07-03T23:01:03.244Z,101659.55
2018-07-03T23:03:31.198Z,101659.60
2018-07-03T23:05:59.102Z,101660.52
2018-07-03T23:08:26.699Z,101657.04
2018-07-03T23:10:54.430Z,101657.04
2018-07-03T23:13:22.714Z,101658.36
2018-07-03T23:15:50.569Z,101658.36
2018-07-03T23:18:18.432Z,101655.36
2018-07-03T23:20:46.322Z,101655.00
2018-07-03T23:23:14.187Z,101657.34
2018-07-03T23:25:42.497Z,101652.12
2018-07-03T23:28:10.330Z,101650.49
2018-07-03T23:30:38.243Z,101645.69
2018-07-03T23:33:05.887Z,101645.81
2018-07-03T23:35:33.740Z,101645.98
2018-07-03T23:38:01.379Z,101645.58
2018-07-03T23:40:29.220Z,101645.66
2018-07-03T23:42:57.140Z,101646.18
2018-07-03T23:45:30.493Z,101645.38
2018-07-03T23:48:11.990Z,101642.34
2018-07-03T23:50:50.930Z,101641.17
2018-07-03T23:53:29.972Z,101634.17
2018-07-03T23:56:08.868Z,101639.94
2018-07-03T23:58:47.930Z,101637.41
